sensor_id;sensor_type;location;lat;lon;timestamp;P1;durP1;ratioP1;P2;durP2;ratioP2
32501;SDS011;18952;52.516;13.460;2023-03-11T00:00:49;39.33;;;31.88;;
32501;SDS011;18952;52.516;13.460;2023-03-11T00:03:17;47.47;;;36.40;;
32501;SDS011;18952;52.516;13.460;2023-03-11T00:05:45;44.00;;;34.78;;
32501;SDS011;18952;52.516;13.460;2023-03-11T00:08:13;47.90;;;36.53;;
32501;SDS011;18952;52.516;13.460;2023-03-11T00:10:43;48.45;;;34.60;;
32501;SDS011;18952;52.516;13.460;2023-03-11T00:13:11;45.92;;;35.85;;
32501;SDS011;18952;52.516;13.460;2023-03-11T00:15:43;42.13;;;30.70;;
32501;SDS011;18952;52.516;13.460;2023-03-11T00:18:11;39.88;;;32.13;;
32501;SDS011;18952;52.516;13.460;2023-03-11T00:20:39;48.00;;;33.08;;
32501;SDS011;18952;52.516;13.460;2023-03-11T00:23:10;39.70;;;32.97;;
32501;SDS011;18952;52.516;13.460;2023-03-11T00:25:38;39.90;;;32.05;;
32501;SDS011;18952;52.516;13.460;2023-03-11T00:28:08;42.03;;;33.05;;
32501;SDS011;18952;52.516;13.460;2023-03-11T00:30:34;53.10;;;36.42;;
32501;SDS011;18952;52.516;13.460;2023-03-11T00:33:02;44.95;;;34.85;;
32501;SDS011;18952;52.516;13.460;2023-03-11T00:35:30;46.75;;;35.05;;
32501;SDS011;18952;52.516;13.460;2023-03-11T00:37:59;43.00;;;34.03;;
32501;SDS011;18952;52.516;13.460;2023-03-11T00:40:29;48.22;;;35.53;;
32501;SDS011;18952;52.516;13.460;2023-03-11T00:42:57;44.42;;;33.03;;
32501;SDS011;18952;52.516;13.460;2023-03-11T00:45:25;47.55;;;34.00;;
32501;SDS011;18952;52.516;13.460;2023-03-11T00:47:53;38.13;;;31.08;;
32501;SDS011;18952;52.516;13.460;2023-03-11T00:50:22;41.25;;;31.00;;
32501;SDS011;18952;52.516;13.460;2023-03-11T00:52:52;39.35;;;31.15;;
32501;SDS011;18952;52.516;13.460;2023-03-11T00:55:23;39.78;;;31.17;;
32501;SDS011;18952;52.516;13.460;2023-03-11T00:57:53;38.30;;;30.08;;
32501;SDS011;18952;52.516;13.460;2023-03-11T01:00:21;42.58;;;32.03;;
32501;SDS011;18952;52.516;13.460;2023-03-11T01:02:49;36.15;;;30.42;;
32501;SDS011;18952;52.516;13.460;2023-03-11T01:05:18;40.60;;;33.50;;
32501;SDS011;18952;52.516;13.460;2023-03-11T01:07:47;42.78;;;35.45;;
32501;SDS011;18952;52.516;13.460;2023-03-11T01:10:15;39.88;;;33.55;;
32501;SDS011;18952;52.516;13.460;2023-03-11T01:12:43;37.33;;;33.22;;
32501;SDS011;18952;52.516;13.460;2023-03-11T01:15:19;38.95;;;32.92;;
32501;SDS011;18952;52.516;13.460;2023-03-11T01:17:52;39.17;;;34.95;;
32501;SDS011;18952;52.516;13.460;2023-03-11T01:20:20;42.10;;;36.05;;
32501;SDS011;18952;52.516;13.460;2023-03-11T01:22:48;43.75;;;37.47;;
32501;SDS011;18952;52.516;13.460;2023-03-11T01:25:16;42.55;;;37.97;;
32501;SDS011;18952;52.516;13.460;2023-03-11T01:27:44;46.53;;;39.35;;
32501;SDS011;18952;52.516;13.460;2023-03-11T01:30:19;41.90;;;37.40;;
32501;SDS011;18952;52.516;13.460;2023-03-11T01:32:48;45.08;;;39.33;;
32501;SDS011;18952;52.516;13.460;2023-03-11T01:35:16;43.67;;;38.65;;
32501;SDS011;18952;52.516;13.460;2023-03-11T01:37:44;42.90;;;38.22;;
32501;SDS011;18952;52.516;13.460;2023-03-11T01:40:13;43.63;;;37.83;;
32501;SDS011;18952;52.516;13.460;2023-03-11T01:42:46;43.55;;;36.03;;
32501;SDS011;18952;52.516;13.460;2023-03-11T01:45:35;39.72;;;35.38;;
32501;SDS011;18952;52.516;13.460;2023-03-11T01:48:04;36.50;;;32.50;;
32501;SDS011;18952;52.516;13.460;2023-03-11T01:50:37;34.70;;;30.85;;
32501;SDS011;18952;52.516;13.460;2023-03-11T01:53:07;32.65;;;28.23;;
32501;SDS011;18952;52.516;13.460;2023-03-11T01:55:35;28.40;;;25.33;;
32501;SDS011;18952;52.516;13.460;2023-03-11T01:58:03;27.65;;;23.52;;
32501;SDS011;18952;52.516;13.460;2023-03-11T02:00:34;23.92;;;21.45;;
32501;SDS011;18952;52.516;13.460;2023-03-11T02:03:05;22.15;;;19.83;;
32501;SDS011;18952;52.516;13.460;2023-03-11T02:05:36;17.73;;;15.98;;
32501;SDS011;18952;52.516;13.460;2023-03-11T02:08:04;14.18;;;12.88;;
32501;SDS011;18952;52.516;13.460;2023-03-11T02:10:32;10.50;;;9.50;;
32501;SDS011;18952;52.516;13.460;2023-03-11T02:12:59;9.88;;;8.98;;
32501;SDS011;18952;52.516;13.460;2023-03-11T02:15:28;9.55;;;8.30;;
32501;SDS011;18952;52.516;13.460;2023-03-11T02:17:55;9.30;;;8.40;;
32501;SDS011;18952;52.516;13.460;2023-03-11T02:22:58;5.80;;;5.30;;
32501;SDS011;18952;52.516;13.460;2023-03-11T02:28:00;4.38;;;4.03;;
32501;SDS011;18952;52.516;13.460;2023-03-11T02:30:28;5.00;;;4.50;;
32501;SDS011;18952;52.516;13.460;2023-03-11T02:32:56;4.15;;;3.85;;
32501;SDS011;18952;52.516;13.460;2023-03-11T02:35:24;4.45;;;4.05;;
32501;SDS011;18952;52.516;13.460;2023-03-11T02:37:52;4.25;;;3.85;;
32501;SDS011;18952;52.516;13.460;2023-03-11T02:42:49;5.07;;;4.55;;
32501;SDS011;18952;52.516;13.460;2023-03-11T02:45:19;4.60;;;4.18;;
32501;SDS011;18952;52.516;13.460;2023-03-11T02:47:49;4.15;;;3.85;;
32501;SDS011;18952;52.516;13.460;2023-03-11T02:50:19;4.13;;;3.83;;
32501;SDS011;18952;52.516;13.460;2023-03-11T02:52:47;5.35;;;4.28;;
32501;SDS011;18952;52.516;13.460;2023-03-11T02:55:15;4.32;;;4.00;;
32501;SDS011;18952;52.516;13.460;2023-03-11T02:57:44;4.50;;;4.10;;
32501;SDS011;18952;52.516;13.460;2023-03-11T03:00:12;3.60;;;3.30;;
32501;SDS011;18952;52.516;13.460;2023-03-11T03:02:41;3.90;;;3.60;;
32501;SDS011;18952;52.516;13.460;2023-03-11T03:05:10;4.90;;;4.45;;
32501;SDS011;18952;52.516;13.460;2023-03-11T03:07:38;4.65;;;4.25;;
32501;SDS011;18952;52.516;13.460;2023-03-11T03:10:05;5.28;;;4.28;;
32501;SDS011;18952;52.516;13.460;2023-03-11T03:12:32;4.68;;;4.28;;
32501;SDS011;18952;52.516;13.460;2023-03-11T03:14:59;5.40;;;5.00;;
32501;SDS011;18952;52.516;13.460;2023-03-11T03:17:26;4.88;;;4.47;;
32501;SDS011;18952;52.516;13.460;2023-03-11T03:19:53;5.13;;;4.63;;
32501;SDS011;18952;52.516;13.460;2023-03-11T03:22:20;6.05;;;5.47;;
32501;SDS011;18952;52.516;13.460;2023-03-11T03:24:46;6.55;;;6.00;;
32501;SDS011;18952;52.516;13.460;2023-03-11T03:27:13;7.03;;;6.32;;
32501;SDS011;18952;52.516;13.460;2023-03-11T03:29:40;8.20;;;6.80;;
32501;SDS011;18952;52.516;13.460;2023-03-11T03:32:07;7.72;;;7.03;;
32501;SDS011;18952;52.516;13.460;2023-03-11T03:34:33;8.13;;;7.43;;
32501;SDS011;18952;52.516;13.460;2023-03-11T03:37:00;8.05;;;7.35;;
32501;SDS011;18952;52.516;13.460;2023-03-11T03:39:30;7.97;;;7.28;;
32501;SDS011;18952;52.516;13.460;2023-03-11T03:41:58;9.20;;;8.30;;
32501;SDS011;18952;52.516;13.460;2023-03-11T03:44:24;8.85;;;8.07;;
32501;SDS011;18952;52.516;13.460;2023-03-11T03:46:51;9.63;;;8.63;;
32501;SDS011;18952;52.516;13.460;2023-03-11T03:49:18;9.43;;;7.80;;
32501;SDS011;18952;52.516;13.460;2023-03-11T03:51:45;8.63;;;7.25;;
32501;SDS011;18952;52.516;13.460;2023-03-11T03:54:11;8.02;;;7.32;;
32501;SDS011;18952;52.516;13.460;2023-03-11T03:56:38;8.90;;;8.00;;
32501;SDS011;18952;52.516;13.460;2023-03-11T03:59:05;8.98;;;8.15;;
32501;SDS011;18952;52.516;13.460;2023-03-11T04:01:32;10.95;;;9.07;;
32501;SDS011;18952;52.516;13.460;2023-03-11T04:03:59;12.95;;;9.32;;
32501;SDS011;18952;52.516;13.460;2023-03-11T04:06:26;11.48;;;9.25;;
32501;SDS011;18952;52.516;13.460;2023-03-11T04:08:53;13.15;;;10.60;;
32501;SDS011;18952;52.516;13.460;2023-03-11T04:11:21;12.13;;;10.10;;
32501;SDS011;18952;52.516;13.460;2023-03-11T04:13:48;12.20;;;10.10;;
32501;SDS011;18952;52.516;13.460;2023-03-11T04:16:19;12.90;;;10.45;;
32501;SDS011;18952;52.516;13.460;2023-03-11T04:18:47;13.52;;;10.27;;
32501;SDS011;18952;52.516;13.460;2023-03-11T04:21:14;11.70;;;10.50;;
32501;SDS011;18952;52.516;13.460;2023-03-11T04:23:41;11.60;;;10.40;;
32501;SDS011;18952;52.516;13.460;2023-03-11T04:26:08;13.30;;;10.30;;
32501;SDS011;18952;52.516;13.460;2023-03-11T04:28:35;13.23;;;10.63;;
32501;SDS011;18952;52.516;13.460;2023-03-11T04:31:02;13.75;;;9.93;;
32501;SDS011;18952;52.516;13.460;2023-03-11T04:33:29;13.05;;;9.95;;
32501;SDS011;18952;52.516;13.460;2023-03-11T04:35:57;11.63;;;10.48;;
32501;SDS011;18952;52.516;13.460;2023-03-11T04:38:24;10.75;;;9.70;;
32501;SDS011;18952;52.516;13.460;2023-03-11T04:40:51;11.02;;;9.93;;
32501;SDS011;18952;52.516;13.460;2023-03-11T04:43:20;11.55;;;9.23;;
32501;SDS011;18952;52.516;13.460;2023-03-11T04:45:48;10.52;;;9.43;;
32501;SDS011;18952;52.516;13.460;2023-03-11T04:48:15;10.68;;;9.68;;
32501;SDS011;18952;52.516;13.460;2023-03-11T04:50:42;10.18;;;9.18;;
32501;SDS011;18952;52.516;13.460;2023-03-11T04:53:09;10.52;;;9.32;;
32501;SDS011;18952;52.516;13.460;2023-03-11T04:55:36;10.80;;;9.05;;
32501;SDS011;18952;52.516;13.460;2023-03-11T04:58:03;10.30;;;8.27;;
32501;SDS011;18952;52.516;13.460;2023-03-11T05:00:30;10.23;;;7.90;;
32501;SDS011;18952;52.516;13.460;2023-03-11T05:02:57;9.38;;;8.43;;
32501;SDS011;18952;52.516;13.460;2023-03-11T05:05:24;10.02;;;8.15;;
32501;SDS011;18952;52.516;13.460;2023-03-11T05:07:51;8.93;;;7.50;;
32501;SDS011;18952;52.516;13.460;2023-03-11T05:10:18;9.88;;;8.80;;
32501;SDS011;18952;52.516;13.460;2023-03-11T05:12:45;9.18;;;8.25;;
32501;SDS011;18952;52.516;13.460;2023-03-11T05:15:12;8.15;;;7.40;;
32501;SDS011;18952;52.516;13.460;2023-03-11T05:17:38;8.85;;;7.85;;
32501;SDS011;18952;52.516;13.460;2023-03-11T05:20:05;9.93;;;8.70;;
32501;SDS011;18952;52.516;13.460;2023-03-11T05:22:32;9.75;;;8.75;;
32501;SDS011;18952;52.516;13.460;2023-03-11T05:24:59;9.30;;;8.40;;
32501;SDS011;18952;52.516;13.460;2023-03-11T05:27:26;9.48;;;8.50;;
32501;SDS011;18952;52.516;13.460;2023-03-11T05:29:53;12.55;;;8.10;;
32501;SDS011;18952;52.516;13.460;2023-03-11T05:32:20;9.13;;;7.78;;
32501;SDS011;18952;52.516;13.460;2023-03-11T05:34:47;11.55;;;8.68;;
32501;SDS011;18952;52.516;13.460;2023-03-11T05:37:14;8.82;;;7.13;;
32501;SDS011;18952;52.516;13.460;2023-03-11T05:39:41;10.90;;;8.23;;
32501;SDS011;18952;52.516;13.460;2023-03-11T05:42:08;10.43;;;7.93;;
32501;SDS011;18952;52.516;13.460;2023-03-11T05:44:35;11.50;;;7.53;;
32501;SDS011;18952;52.516;13.460;2023-03-11T05:47:03;8.52;;;7.28;;
32501;SDS011;18952;52.516;13.460;2023-03-11T05:49:30;8.50;;;7.47;;
32501;SDS011;18952;52.516;13.460;2023-03-11T05:51:57;8.40;;;7.65;;
32501;SDS011;18952;52.516;13.460;2023-03-11T05:54:24;9.73;;;8.57;;
32501;SDS011;18952;52.516;13.460;2023-03-11T05:56:51;8.40;;;7.35;;
32501;SDS011;18952;52.516;13.460;2023-03-11T05:59:18;10.07;;;8.02;;
32501;SDS011;18952;52.516;13.460;2023-03-11T06:01:45;12.25;;;8.45;;
32501;SDS011;18952;52.516;13.460;2023-03-11T06:04:16;8.52;;;7.72;;
32501;SDS011;18952;52.516;13.460;2023-03-11T06:06:43;9.00;;;8.10;;
32501;SDS011;18952;52.516;13.460;2023-03-11T06:09:11;9.30;;;7.93;;
32501;SDS011;18952;52.516;13.460;2023-03-11T06:11:38;12.07;;;8.20;;
32501;SDS011;18952;52.516;13.460;2023-03-11T06:14:05;9.77;;;8.70;;
32501;SDS011;18952;52.516;13.460;2023-03-11T06:16:32;12.68;;;8.88;;
32501;SDS011;18952;52.516;13.460;2023-03-11T06:18:59;9.63;;;8.38;;
32501;SDS011;18952;52.516;13.460;2023-03-11T06:21:26;9.75;;;8.75;;
32501;SDS011;18952;52.516;13.460;2023-03-11T06:23:53;11.50;;;9.48;;
32501;SDS011;18952;52.516;13.460;2023-03-11T06:26:21;12.35;;;10.55;;
32501;SDS011;18952;52.516;13.460;2023-03-11T06:28:49;11.90;;;10.70;;
32501;SDS011;18952;52.516;13.460;2023-03-11T06:31:24;11.40;;;9.65;;
32501;SDS011;18952;52.516;13.460;2023-03-11T06:33:52;10.38;;;9.25;;
32501;SDS011;18952;52.516;13.460;2023-03-11T06:36:20;13.13;;;9.70;;
32501;SDS011;18952;52.516;13.460;2023-03-11T06:38:49;10.60;;;8.73;;
32501;SDS011;18952;52.516;13.460;2023-03-11T06:41:21;11.43;;;9.52;;
32501;SDS011;18952;52.516;13.460;2023-03-11T06:43:50;12.13;;;9.32;;
32501;SDS011;18952;52.516;13.460;2023-03-11T06:46:18;11.38;;;9.38;;
32501;SDS011;18952;52.516;13.460;2023-03-11T06:48:46;13.95;;;9.65;;
32501;SDS011;18952;52.516;13.460;2023-03-11T06:51:14;12.10;;;10.38;;
32501;SDS011;18952;52.516;13.460;2023-03-11T06:53:41;11.65;;;9.48;;
32501;SDS011;18952;52.516;13.460;2023-03-11T06:56:12;12.02;;;8.98;;
32501;SDS011;18952;52.516;13.460;2023-03-11T06:58:41;12.57;;;9.18;;
32501;SDS011;18952;52.516;13.460;2023-03-11T07:01:12;11.23;;;9.30;;
32501;SDS011;18952;52.516;13.460;2023-03-11T07:03:41;10.43;;;8.48;;
32501;SDS011;18952;52.516;13.460;2023-03-11T07:06:14;10.88;;;8.90;;
32501;SDS011;18952;52.516;13.460;2023-03-11T07:08:44;10.57;;;9.27;;
32501;SDS011;18952;52.516;13.460;2023-03-11T07:11:13;11.63;;;9.57;;
32501;SDS011;18952;52.516;13.460;2023-03-11T07:13:47;11.02;;;8.70;;
32501;SDS011;18952;52.516;13.460;2023-03-11T07:16:21;12.10;;;9.20;;
32501;SDS011;18952;52.516;13.460;2023-03-11T07:18:50;10.70;;;8.63;;
32501;SDS011;18952;52.516;13.460;2023-03-11T07:21:18;10.55;;;7.97;;
32501;SDS011;18952;52.516;13.460;2023-03-11T07:23:47;13.07;;;8.88;;
32501;SDS011;18952;52.516;13.460;2023-03-11T07:26:17;12.20;;;7.72;;
32501;SDS011;18952;52.516;13.460;2023-03-11T07:28:44;10.77;;;8.00;;
32501;SDS011;18952;52.516;13.460;2023-03-11T07:31:12;14.65;;;8.50;;
32501;SDS011;18952;52.516;13.460;2023-03-11T07:33:44;17.33;;;9.30;;
32501;SDS011;18952;52.516;13.460;2023-03-11T07:36:12;16.23;;;9.98;;
32501;SDS011;18952;52.516;13.460;2023-03-11T07:38:40;11.25;;;9.05;;
32501;SDS011;18952;52.516;13.460;2023-03-11T07:41:08;13.95;;;8.73;;
32501;SDS011;18952;52.516;13.460;2023-03-11T07:43:36;11.07;;;8.48;;
32501;SDS011;18952;52.516;13.460;2023-03-11T07:48:36;11.70;;;8.70;;
32501;SDS011;18952;52.516;13.460;2023-03-11T07:51:05;13.90;;;8.80;;
32501;SDS011;18952;52.516;13.460;2023-03-11T07:53:35;16.02;;;8.85;;
32501;SDS011;18952;52.516;13.460;2023-03-11T07:56:02;11.23;;;8.18;;
32501;SDS011;18952;52.516;13.460;2023-03-11T07:58:29;16.17;;;9.88;;
32501;SDS011;18952;52.516;13.460;2023-03-11T08:00:56;11.90;;;8.48;;
32501;SDS011;18952;52.516;13.460;2023-03-11T08:03:27;10.00;;;8.05;;
32501;SDS011;18952;52.516;13.460;2023-03-11T08:05:54;14.20;;;8.85;;
32501;SDS011;18952;52.516;13.460;2023-03-11T08:08:21;15.95;;;9.77;;
32501;SDS011;18952;52.516;13.460;2023-03-11T08:10:48;14.30;;;9.65;;
32501;SDS011;18952;52.516;13.460;2023-03-11T08:13:15;11.18;;;8.70;;
32501;SDS011;18952;52.516;13.460;2023-03-11T08:15:41;12.60;;;8.50;;
32501;SDS011;18952;52.516;13.460;2023-03-11T08:18:08;13.52;;;9.88;;
32501;SDS011;18952;52.516;13.460;2023-03-11T08:20:36;12.13;;;8.90;;
32501;SDS011;18952;52.516;13.460;2023-03-11T08:23:04;16.33;;;9.27;;
32501;SDS011;18952;52.516;13.460;2023-03-11T08:25:31;12.45;;;8.48;;
32501;SDS011;18952;52.516;13.460;2023-03-11T08:27:58;13.35;;;9.00;;
32501;SDS011;18952;52.516;13.460;2023-03-11T08:30:24;10.43;;;8.05;;
32501;SDS011;18952;52.516;13.460;2023-03-11T08:32:51;16.15;;;9.52;;
32501;SDS011;18952;52.516;13.460;2023-03-11T08:35:18;12.10;;;9.25;;
32501;SDS011;18952;52.516;13.460;2023-03-11T08:37:45;12.55;;;8.82;;
32501;SDS011;18952;52.516;13.460;2023-03-11T08:40:15;11.90;;;9.10;;
32501;SDS011;18952;52.516;13.460;2023-03-11T08:42:42;16.20;;;8.95;;
32501;SDS011;18952;52.516;13.460;2023-03-11T08:45:09;11.85;;;8.43;;
32501;SDS011;18952;52.516;13.460;2023-03-11T08:47:37;11.52;;;7.65;;
32501;SDS011;18952;52.516;13.460;2023-03-11T08:50:07;12.25;;;8.45;;
32501;SDS011;18952;52.516;13.460;2023-03-11T08:52:39;11.38;;;7.72;;
32501;SDS011;18952;52.516;13.460;2023-03-11T08:55:07;11.52;;;7.72;;
32501;SDS011;18952;52.516;13.460;2023-03-11T08:57:34;11.80;;;7.43;;
32501;SDS011;18952;52.516;13.460;2023-03-11T09:00:01;10.65;;;7.53;;
32501;SDS011;18952;52.516;13.460;2023-03-11T09:02:29;9.68;;;6.93;;
32501;SDS011;18952;52.516;13.460;2023-03-11T09:04:56;12.70;;;7.70;;
32501;SDS011;18952;52.516;13.460;2023-03-11T09:07:23;9.90;;;7.25;;
32501;SDS011;18952;52.516;13.460;2023-03-11T09:09:49;9.55;;;7.57;;
32501;SDS011;18952;52.516;13.460;2023-03-11T09:12:16;11.70;;;7.63;;
32501;SDS011;18952;52.516;13.460;2023-03-11T09:14:43;8.88;;;6.97;;
32501;SDS011;18952;52.516;13.460;2023-03-11T09:17:10;8.90;;;7.10;;
32501;SDS011;18952;52.516;13.460;2023-03-11T09:19:37;8.85;;;6.80;;
32501;SDS011;18952;52.516;13.460;2023-03-11T09:22:04;12.10;;;7.57;;
32501;SDS011;18952;52.516;13.460;2023-03-11T09:24:31;11.95;;;6.97;;
32501;SDS011;18952;52.516;13.460;2023-03-11T09:26:59;10.35;;;6.68;;
32501;SDS011;18952;52.516;13.460;2023-03-11T09:29:26;9.70;;;6.75;;
32501;SDS011;18952;52.516;13.460;2023-03-11T09:31:53;9.02;;;6.78;;
32501;SDS011;18952;52.516;13.460;2023-03-11T09:34:21;12.00;;;7.32;;
32501;SDS011;18952;52.516;13.460;2023-03-11T09:36:48;9.13;;;7.38;;
32501;SDS011;18952;52.516;13.460;2023-03-11T09:39:15;11.52;;;7.38;;
32501;SDS011;18952;52.516;13.460;2023-03-11T09:41:55;9.40;;;6.93;;
32501;SDS011;18952;52.516;13.460;2023-03-11T09:44:44;10.52;;;7.40;;
32501;SDS011;18952;52.516;13.460;2023-03-11T09:47:32;10.55;;;7.78;;
32501;SDS011;18952;52.516;13.460;2023-03-11T09:55:32;10.95;;;8.23;;
32501;SDS011;18952;52.516;13.460;2023-03-11T10:03:55;8.65;;;7.72;;
32501;SDS011;18952;52.516;13.460;2023-03-11T10:06:30;8.70;;;7.78;;
32501;SDS011;18952;52.516;13.460;2023-03-11T10:27:56;10.55;;;8.10;;
32501;SDS011;18952;52.516;13.460;2023-03-11T10:30:33;11.48;;;8.38;;
32501;SDS011;18952;52.516;13.460;2023-03-11T10:33:19;9.40;;;7.63;;
32501;SDS011;18952;52.516;13.460;2023-03-11T10:35:52;10.55;;;8.93;;
32501;SDS011;18952;52.516;13.460;2023-03-11T10:38:25;11.13;;;8.90;;
32501;SDS011;18952;52.516;13.460;2023-03-11T10:44:18;10.57;;;8.98;;
32501;SDS011;18952;52.516;13.460;2023-03-11T10:47:08;13.18;;;8.85;;
32501;SDS011;18952;52.516;13.460;2023-03-11T10:49:50;9.73;;;7.90;;
32501;SDS011;18952;52.516;13.460;2023-03-11T10:52:17;8.65;;;6.82;;
32501;SDS011;18952;52.516;13.460;2023-03-11T10:54:45;7.50;;;6.70;;
32501;SDS011;18952;52.516;13.460;2023-03-11T10:57:27;8.27;;;6.95;;
32501;SDS011;18952;52.516;13.460;2023-03-11T10:59:59;9.53;;;7.17;;
32501;SDS011;18952;52.516;13.460;2023-03-11T11:02:32;9.05;;;8.00;;
32501;SDS011;18952;52.516;13.460;2023-03-11T11:07:45;10.02;;;7.90;;
32501;SDS011;18952;52.516;13.460;2023-03-11T11:15:24;9.30;;;8.27;;
32501;SDS011;18952;52.516;13.460;2023-03-11T11:17:57;11.30;;;8.10;;
32501;SDS011;18952;52.516;13.460;2023-03-11T11:20:27;11.55;;;8.73;;
32501;SDS011;18952;52.516;13.460;2023-03-11T11:22:59;12.52;;;8.77;;
32501;SDS011;18952;52.516;13.460;2023-03-11T11:27:59;10.10;;;9.10;;
32501;SDS011;18952;52.516;13.460;2023-03-11T11:33:39;12.02;;;9.73;;
32501;SDS011;18952;52.516;13.460;2023-03-11T11:36:16;9.50;;;8.35;;
32501;SDS011;18952;52.516;13.460;2023-03-11T11:38:45;11.18;;;9.55;;
32501;SDS011;18952;52.516;13.460;2023-03-11T11:41:14;11.88;;;9.75;;
32501;SDS011;18952;52.516;13.460;2023-03-11T11:43:54;13.63;;;10.25;;
32501;SDS011;18952;52.516;13.460;2023-03-11T11:46:25;15.20;;;10.80;;
32501;SDS011;18952;52.516;13.460;2023-03-11T11:51:56;15.63;;;10.45;;
32501;SDS011;18952;52.516;13.460;2023-03-11T11:54:29;13.95;;;11.43;;
32501;SDS011;18952;52.516;13.460;2023-03-11T11:57:07;12.40;;;10.75;;
32501;SDS011;18952;52.516;13.460;2023-03-11T11:59:42;13.90;;;11.48;;
32501;SDS011;18952;52.516;13.460;2023-03-11T12:11:03;13.45;;;10.77;;
32501;SDS011;18952;52.516;13.460;2023-03-11T12:21:45;12.75;;;10.73;;
32501;SDS011;18952;52.516;13.460;2023-03-11T12:26:53;11.23;;;9.85;;
32501;SDS011;18952;52.516;13.460;2023-03-11T12:29:37;13.23;;;10.65;;
32501;SDS011;18952;52.516;13.460;2023-03-11T12:32:17;11.27;;;9.98;;
32501;SDS011;18952;52.516;13.460;2023-03-11T12:35:18;15.25;;;11.25;;
32501;SDS011;18952;52.516;13.460;2023-03-11T12:37:54;12.20;;;10.73;;
32501;SDS011;18952;52.516;13.460;2023-03-11T12:46:02;12.63;;;11.35;;
32501;SDS011;18952;52.516;13.460;2023-03-11T12:48:34;13.75;;;10.95;;
32501;SDS011;18952;52.516;13.460;2023-03-11T12:51:30;11.85;;;10.13;;
32501;SDS011;18952;52.516;13.460;2023-03-11T12:56:59;15.48;;;9.35;;
32501;SDS011;18952;52.516;13.460;2023-03-11T13:04:50;14.38;;;10.60;;
32501;SDS011;18952;52.516;13.460;2023-03-11T13:18:41;12.63;;;10.65;;
32501;SDS011;18952;52.516;13.460;2023-03-11T13:41:02;10.85;;;9.70;;
32501;SDS011;18952;52.516;13.460;2023-03-11T13:44:15;10.15;;;9.05;;
32501;SDS011;18952;52.516;13.460;2023-03-11T13:46:59;10.98;;;9.38;;
32501;SDS011;18952;52.516;13.460;2023-03-11T13:52:17;12.50;;;9.40;;
32501;SDS011;18952;52.516;13.460;2023-03-11T13:57:49;11.63;;;8.10;;
32501;SDS011;18952;52.516;13.460;2023-03-11T14:00:21;12.53;;;8.37;;
32501;SDS011;18952;52.516;13.460;2023-03-11T14:02:58;13.75;;;8.45;;
32501;SDS011;18952;52.516;13.460;2023-03-11T14:05:31;9.35;;;8.20;;
32501;SDS011;18952;52.516;13.460;2023-03-11T14:08:20;11.48;;;7.95;;
32501;SDS011;18952;52.516;13.460;2023-03-11T14:10:53;8.48;;;7.20;;
32501;SDS011;18952;52.516;13.460;2023-03-11T14:13:25;11.88;;;8.32;;
32501;SDS011;18952;52.516;13.460;2023-03-11T14:15:56;8.98;;;7.90;;
32501;SDS011;18952;52.516;13.460;2023-03-11T14:21:00;10.57;;;8.20;;
32501;SDS011;18952;52.516;13.460;2023-03-11T14:23:29;11.10;;;8.60;;
32501;SDS011;18952;52.516;13.460;2023-03-11T14:25:59;11.20;;;7.93;;
32501;SDS011;18952;52.516;13.460;2023-03-11T14:28:29;13.57;;;8.40;;
32501;SDS011;18952;52.516;13.460;2023-03-11T14:31:00;11.75;;;7.28;;
32501;SDS011;18952;52.516;13.460;2023-03-11T14:33:30;8.35;;;6.88;;
32501;SDS011;18952;52.516;13.460;2023-03-11T14:35:58;9.95;;;7.40;;
32501;SDS011;18952;52.516;13.460;2023-03-11T14:38:29;9.05;;;6.68;;
32501;SDS011;18952;52.516;13.460;2023-03-11T14:40:58;8.93;;;6.63;;
32501;SDS011;18952;52.516;13.460;2023-03-11T14:43:27;8.60;;;6.90;;
32501;SDS011;18952;52.516;13.460;2023-03-11T14:46:02;10.13;;;6.65;;
32501;SDS011;18952;52.516;13.460;2023-03-11T14:48:40;8.88;;;7.10;;
32501;SDS011;18952;52.516;13.460;2023-03-11T14:51:16;8.00;;;6.35;;
32501;SDS011;18952;52.516;13.460;2023-03-11T14:53:56;10.75;;;7.22;;
32501;SDS011;18952;52.516;13.460;2023-03-11T14:56:35;9.38;;;6.05;;
32501;SDS011;18952;52.516;13.460;2023-03-11T14:59:14;7.82;;;5.90;;
32501;SDS011;18952;52.516;13.460;2023-03-11T15:01:49;9.32;;;6.32;;
32501;SDS011;18952;52.516;13.460;2023-03-11T15:06:52;10.60;;;6.47;;
32501;SDS011;18952;52.516;13.460;2023-03-11T15:09:21;10.43;;;5.50;;
32501;SDS011;18952;52.516;13.460;2023-03-11T15:11:50;8.95;;;5.57;;
32501;SDS011;18952;52.516;13.460;2023-03-11T15:14:36;9.40;;;5.43;;
32501;SDS011;18952;52.516;13.460;2023-03-11T15:20:00;7.07;;;4.88;;
32501;SDS011;18952;52.516;13.460;2023-03-11T15:25:13;7.53;;;4.75;;
32501;SDS011;18952;52.516;13.460;2023-03-11T15:27:54;7.97;;;4.85;;
32501;SDS011;18952;52.516;13.460;2023-03-11T15:33:19;6.95;;;4.80;;
32501;SDS011;18952;52.516;13.460;2023-03-11T15:35:56;8.52;;;4.53;;
32501;SDS011;18952;52.516;13.460;2023-03-11T15:38:25;7.95;;;4.90;;
32501;SDS011;18952;52.516;13.460;2023-03-11T15:40:56;7.95;;;4.90;;
32501;SDS011;18952;52.516;13.460;2023-03-11T15:43:30;5.20;;;4.43;;
32501;SDS011;18952;52.516;13.460;2023-03-11T15:46:01;9.82;;;4.80;;
32501;SDS011;18952;52.516;13.460;2023-03-11T15:48:36;6.95;;;4.63;;
32501;SDS011;18952;52.516;13.460;2023-03-11T15:51:16;9.80;;;5.28;;
32501;SDS011;18952;52.516;13.460;2023-03-11T15:56:17;6.57;;;4.95;;
32501;SDS011;18952;52.516;13.460;2023-03-11T15:58:51;11.05;;;4.63;;
32501;SDS011;18952;52.516;13.460;2023-03-11T16:01:26;6.30;;;4.57;;
32501;SDS011;18952;52.516;13.460;2023-03-11T16:03:54;7.28;;;4.05;;
32501;SDS011;18952;52.516;13.460;2023-03-11T16:06:31;6.28;;;4.60;;
32501;SDS011;18952;52.516;13.460;2023-03-11T16:09:00;8.05;;;4.40;;
32501;SDS011;18952;52.516;13.460;2023-03-11T16:11:35;8.82;;;4.60;;
32501;SDS011;18952;52.516;13.460;2023-03-11T16:14:10;7.88;;;4.70;;
32501;SDS011;18952;52.516;13.460;2023-03-11T16:16:51;6.30;;;4.90;;
32501;SDS011;18952;52.516;13.460;2023-03-11T16:19:20;6.35;;;4.07;;
32501;SDS011;18952;52.516;13.460;2023-03-11T16:22:03;7.97;;;3.75;;
32501;SDS011;18952;52.516;13.460;2023-03-11T16:24:34;8.77;;;3.83;;
32501;SDS011;18952;52.516;13.460;2023-03-11T16:27:01;6.45;;;3.53;;
32501;SDS011;18952;52.516;13.460;2023-03-11T16:29:28;5.00;;;3.20;;
32501;SDS011;18952;52.516;13.460;2023-03-11T16:32:01;6.38;;;4.00;;
32501;SDS011;18952;52.516;13.460;2023-03-11T16:34:33;7.40;;;4.10;;
32501;SDS011;18952;52.516;13.460;2023-03-11T16:37:04;11.52;;;4.00;;
32501;SDS011;18952;52.516;13.460;2023-03-11T16:39:35;5.97;;;3.70;;
32501;SDS011;18952;52.516;13.460;2023-03-11T16:42:02;7.53;;;3.45;;
32501;SDS011;18952;52.516;13.460;2023-03-11T16:44:32;6.22;;;3.60;;
32501;SDS011;18952;52.516;13.460;2023-03-11T16:47:02;6.57;;;4.15;;
32501;SDS011;18952;52.516;13.460;2023-03-11T16:49:37;8.55;;;4.97;;
32501;SDS011;18952;52.516;13.460;2023-03-11T16:52:26;7.10;;;4.43;;
32501;SDS011;18952;52.516;13.460;2023-03-11T16:54:53;7.40;;;4.43;;
32501;SDS011;18952;52.516;13.460;2023-03-11T16:57:19;8.80;;;4.28;;
32501;SDS011;18952;52.516;13.460;2023-03-11T16:59:50;7.95;;;4.38;;
32501;SDS011;18952;52.516;13.460;2023-03-11T17:02:33;10.05;;;4.82;;
32501;SDS011;18952;52.516;13.460;2023-03-11T17:05:03;7.28;;;4.45;;
32501;SDS011;18952;52.516;13.460;2023-03-11T17:07:35;8.82;;;4.78;;